Time;durP1;ratioP1;P1;durP2;ratioP2;P2;SDS_P1;SDS_P2;PMS_P1;PMS_P2;Temp;Humidity;BMP_temperature;BMP_pressure;BME280_temperature;BME280_humidity;BME280_pressure;Samples;Min_cycle;Max_cycle;Signal;HPM_P1;HPM_P2
2022/09/22 00:00:57;;;;;;;3.33;2.07;;;;;;;6.14;78.62;96235.22;4993889;28;20203;-82
2022/09/22 00:03:22;;;;;;;2.10;1.80;;;;;;;6.09;78.63;96227.78;4990702;28;20291;-82
2022/09/22 00:05:48;;;;;;;2.53;2.10;;;;;;;6.12;78.78;96226.78;4990147;28;20771;-83
2022/09/22 00:08:13;;;;;;;3.77;1.87;;;;;;;6.13;78.48;96223.28;4993480;28;20219;-82
2022/09/22 00:10:38;;;;;;;2.63;1.83;;;;;;;6.09;78.64;96227.78;4992104;28;20193;-83
2022/09/22 00:13:04;;;;;;;2.40;2.10;;;;;;;6.10;78.52;96223.50;4985978;28;20192;-82
2022/09/22 00:15:29;;;;;;;9.33;4.40;;;;;;;6.06;78.55;96227.19;4991025;28;20561;-83
2022/09/22 00:17:55;;;;;;;2.20;2.00;;;;;;;6.10;78.42;96223.50;5001344;28;20283;-83
2022/09/22 00:20:20;;;;;;;3.00;2.07;;;;;;;6.09;78.07;96219.25;4988052;28;20192;-83
2022/09/22 00:22:49;;;;;;;3.43;2.23;;;;;;;6.11;78.22;96220.81;5001776;28;20195;-85
2022/09/22 00:25:15;;;;;;;3.07;2.23;;;;;;;6.09;78.12;96214.91;4993750;28;20196;-83
2022/09/22 00:27:41;;;;;;;2.17;1.87;;;;;;;6.03;78.26;96209.34;5003414;28;20208;-83
2022/09/22 00:30:07;;;;;;;4.07;2.83;;;;;;;6.05;78.42;96215.22;4991553;28;20290;-82
2022/09/22 00:32:32;;;;;;;2.53;2.00;;;;;;;6.04;78.30;96209.25;4992614;28;20188;-83
2022/09/22 00:34:58;;;;;;;2.07;1.87;;;;;;;6.05;78.42;96207.50;4991260;28;20186;-84
2022/09/22 00:37:23;;;;;;;2.00;1.80;;;;;;;6.00;78.47;96210.38;4988470;28;20211;-83
2022/09/22 00:39:48;;;;;;;3.53;2.33;;;;;;;5.99;78.50;96205.31;4989859;28;20193;-83
2022/09/22 00:42:14;;;;;;;2.33;1.83;;;;;;;5.94;78.20;96201.31;4990673;28;20200;-84
2022/09/22 00:44:41;;;;;;;2.10;1.87;;;;;;;5.97;78.35;96206.25;4989781;28;20215;-82
2022/09/22 00:47:14;;;;;;;2.20;2.00;;;;;;;5.92;78.09;96205.75;5001198;28;20210;-83
2022/09/22 00:49:57;;;;;;;2.27;1.80;;;;;;;5.88;78.69;96204.25;4992263;28;20523;-83
2022/09/22 00:52:45;;;;;;;2.43;2.20;;;;;;;5.87;78.29;96205.19;4991127;28;20212;-83
2022/09/22 00:55:15;;;;;;;2.80;1.80;;;;;;;5.88;78.56;96199.09;4986950;28;20259;-82
2022/09/22 00:57:41;;;;;;;2.77;2.50;;;;;;;5.80;78.43;96191.06;4991314;28;20557;-83
2022/09/22 01:00:08;;;;;;;2.00;1.80;;;;;;;5.84;78.82;96197.69;4991124;28;20180;-83
2022/09/22 01:02:34;;;;;;;3.20;2.00;;;;;;;5.88;78.45;96188.78;4988721;28;20185;-83
2022/09/22 01:04:59;;;;;;;2.87;1.97;;;;;;;5.86;78.47;96193.25;4991081;28;20211;-82
2022/09/22 01:07:27;;;;;;;2.50;2.00;;;;;;;5.82;78.73;96190.94;4992108;28;20211;-83
2022/09/22 01:09:54;;;;;;;2.00;1.60;;;;;;;5.75;78.86;96193.13;4988945;28;20242;-82
2022/09/22 01:12:19;;;;;;;2.50;1.80;;;;;;;5.74;78.52;96196.63;4989015;28;20641;-83
2022/09/22 01:15:03;;;;;;;2.63;2.10;;;;;;;5.72;78.88;96195.06;4990316;28;20272;-82
2022/09/22 01:17:55;;;;;;;2.93;1.80;;;;;;;5.70;79.44;96187.44;4988113;28;20217;-83
2022/09/22 01:20:29;;;;;;;2.13;1.93;;;;;;;5.67;79.42;96190.25;4970199;28;20189;-82
2022/09/22 01:23:17;;;;;;;2.20;2.00;;;;;;;5.63;79.54;96194.75;4988411;28;20187;-84
2022/09/22 01:26:11;;;;;;;4.10;2.17;;;;;;;5.60;79.84;96194.97;4989817;28;20617;-82
2022/09/22 01:28:48;;;;;;;3.60;1.90;;;;;;;5.54;80.34;96191.97;4998813;28;20645;-82
2022/09/22 01:31:21;;;;;;;2.57;1.70;;;;;;;5.53;80.08;96198.88;4998614;28;20192;-82
2022/09/22 01:33:50;;;;;;;2.43;2.10;;;;;;;5.46;80.28;96200.19;4986493;28;20191;-83
2022/09/22 01:36:34;;;;;;;2.60;1.97;;;;;;;5.43;80.48;96202.16;4978927;28;20255;-83
2022/09/22 01:39:21;;;;;;;2.20;1.87;;;;;;;5.37;80.72;96204.19;4987519;28;20688;-83
2022/09/22 01:42:10;;;;;;;2.83;2.07;;;;;;;5.38;81.00;96205.00;4974556;28;20176;-84
2022/09/22 01:45:10;;;;;;;2.37;2.17;;;;;;;5.40;81.21;96204.00;4982987;28;20224;-86
2022/09/22 01:47:48;;;;;;;2.63;2.30;;;;;;;5.45;80.98;96203.69;4989535;28;20282;-83
2022/09/22 01:50:19;;;;;;;2.27;1.90;;;;;;;5.47;81.06;96196.69;4988177;28;20241;-83
2022/09/22 01:52:44;;;;;;;3.43;2.00;;;;;;;5.47;80.82;96195.88;4990828;28;20311;-84
2022/09/22 01:55:22;;;;;;;3.07;2.10;;;;;;;5.50;80.96;96193.94;4989338;28;20266;-82
2022/09/22 01:57:52;;;;;;;3.40;2.30;;;;;;;5.52;81.07;96197.22;4990130;28;20283;-83
2022/09/22 02:00:18;;;;;;;2.50;2.30;;;;;;;5.60;80.59;96183.84;4974617;28;20185;-82
2022/09/22 02:03:07;;;;;;;3.37;2.03;;;;;;;5.62;80.54;96193.09;4995864;28;20661;-83
2022/09/22 02:05:41;;;;;;;2.10;1.90;;;;;;;5.61;80.52;96188.06;4965763;28;20216;-82
2022/09/22 02:08:10;;;;;;;4.53;2.10;;;;;;;5.63;81.12;96181.06;4987407;28;20192;-84
2022/09/22 02:10:40;;;;;;;3.00;2.10;;;;;;;5.61;80.60;96180.34;4994248;28;20664;-83
2022/09/22 02:13:05;;;;;;;3.50;2.30;;;;;;;5.57;80.97;96187.44;4973542;28;20220;-84
2022/09/22 02:18:19;;;;;;;2.23;1.90;;;;;;;5.53;81.27;96183.41;4995731;28;20681;-82
2022/09/22 02:20:44;;;;;;;2.93;2.10;;;;;;;5.50;81.49;96183.63;4978291;28;20211;-82
2022/09/22 02:23:09;;;;;;;2.40;2.20;;;;;;;5.49;81.29;96184.56;4989561;28;20231;-84
2022/09/22 02:25:36;;;;;;;4.23;2.37;;;;;;;5.56;81.25;96183.19;4990403;28;20234;-82
2022/09/22 02:28:01;;;;;;;3.67;2.50;;;;;;;5.50;81.10;96195.69;4989598;28;20188;-82
2022/09/22 02:30:27;;;;;;;3.43;2.30;;;;;;;5.46;81.17;96176.19;5000989;28;20184;-83
2022/09/22 02:32:54;;;;;;;2.87;2.50;;;;;;;5.46;81.40;96181.34;4986773;28;20677;-82
2022/09/22 02:35:19;;;;;;;2.97;2.13;;;;;;;5.47;81.43;96175.25;5003668;28;20188;-83
2022/09/22 02:38:01;;;;;;;3.00;2.20;;;;;;;5.46;81.69;96177.00;5002571;28;20192;-82
2022/09/22 02:40:29;;;;;;;2.60;2.37;;;;;;;5.44;81.82;96173.72;4989194;28;20206;-84
2022/09/22 02:43:00;;;;;;;4.67;2.57;;;;;;;5.50;81.58;96167.34;4972718;28;20180;-83
2022/09/22 02:46:04;;;;;;;2.43;2.00;;;;;;;5.47;81.71;96164.94;4972387;28;20275;-83
2022/09/22 02:48:34;;;;;;;3.03;2.73;;;;;;;5.44;82.24;96175.47;4983679;28;20203;-82
2022/09/22 02:51:00;;;;;;;5.57;2.30;;;;;;;5.43;81.83;96166.09;4979686;28;20180;-82
2022/09/22 02:53:25;;;;;;;3.93;2.10;;;;;;;5.50;81.75;96159.63;4971628;28;20188;-84
2022/09/22 02:55:50;;;;;;;3.37;2.37;;;;;;;5.43;81.94;96169.50;4988560;28;20559;-83
2022/09/22 02:58:16;;;;;;;2.23;2.03;;;;;;;5.40;82.04;96178.25;4988619;28;20195;-83
2022/09/22 03:00:42;;;;;;;4.90;2.47;;;;;;;5.42;82.42;96165.28;4988828;28;20649;-82
2022/09/22 03:03:10;;;;;;;2.73;2.13;;;;;;;5.42;82.37;96174.75;4980312;28;20215;-82
2022/09/22 03:05:35;;;;;;;3.60;2.40;;;;;;;5.40;82.23;96167.13;4972912;28;20284;-85
2022/09/22 03:08:01;;;;;;;2.93;2.40;;;;;;;5.37;82.03;96168.13;4976544;28;20197;-84
2022/09/22 03:10:27;;;;;;;2.47;2.20;;;;;;;5.37;82.49;96165.56;4989816;28;20190;-84
2022/09/22 03:12:52;;;;;;;3.50;2.13;;;;;;;5.37;82.31;96162.97;5000535;28;20227;-84
2022/09/22 03:15:17;;;;;;;3.67;2.23;;;;;;;5.39;82.07;96168.06;4997564;28;20250;-83
2022/09/22 03:17:43;;;;;;;3.30;1.90;;;;;;;5.37;82.37;96170.72;4989823;28;20187;-82
2022/09/22 03:20:10;;;;;;;2.53;2.07;;;;;;;5.32;82.53;96167.63;4989967;28;20195;-82
2022/09/22 03:22:36;;;;;;;4.73;2.20;;;;;;;5.33;82.50;96161.53;4972087;28;20196;-83
2022/09/22 03:25:01;;;;;;;3.93;2.50;;;;;;;5.33;82.55;96165.88;4985527;28;20222;-83
2022/09/22 03:27:26;;;;;;;2.60;2.40;;;;;;;5.32;82.62;96161.66;4992472;28;20235;-83
2022/09/22 03:29:52;;;;;;;2.50;2.30;;;;;;;5.28;82.67;96155.84;4988257;28;20245;-82
2022/09/22 03:32:17;;;;;;;3.37;2.37;;;;;;;5.29;82.66;96162.66;4992001;28;20589;-83
2022/09/22 03:34:43;;;;;;;3.23;2.30;;;;;;;5.24;82.51;96145.88;4991793;28;20184;-83
2022/09/22 03:37:08;;;;;;;4.23;2.60;;;;;;;5.27;82.89;96151.63;4985598;28;20223;-83
2022/09/22 03:39:33;;;;;;;2.53;2.20;;;;;;;5.24;82.90;96159.56;4977635;28;20184;-84
2022/09/22 03:41:58;;;;;;;4.50;2.37;;;;;;;5.24;83.20;96157.00;4992808;28;20303;-82
2022/09/22 03:44:25;;;;;;;4.60;2.30;;;;;;;5.21;83.08;96152.06;4986828;28;20203;-83
2022/09/22 03:46:50;;;;;;;5.40;2.50;;;;;;;5.19;83.37;96159.03;4990469;28;20751;-82
2022/09/22 03:49:16;;;;;;;2.87;2.50;;;;;;;5.14;83.34;96155.13;4990982;28;20192;-83
2022/09/22 03:51:41;;;;;;;3.13;2.73;;;;;;;5.07;83.72;96154.69;4987566;28;20232;-83
2022/09/22 03:54:06;;;;;;;2.90;2.60;;;;;;;5.13;83.62;96154.31;4991156;28;20181;-82
2022/09/22 03:56:32;;;;;;;2.40;2.20;;;;;;;5.13;83.68;96151.72;4991193;28;20220;-85
2022/09/22 03:58:58;;;;;;;2.40;2.20;;;;;;;5.07;83.80;96152.13;4989263;28;20238;-85
2022/09/22 04:01:23;;;;;;;3.03;2.47;;;;;;;5.08;84.35;96149.44;4990516;28;20176;-84
2022/09/22 04:03:49;;;;;;;6.53;2.80;;;;;;;5.09;84.26;96147.69;4993516;28;20233;-86
2022/09/22 04:06:14;;;;;;;3.30;2.70;;;;;;;5.10;84.08;96144.19;4990708;28;20207;-83
2022/09/22 04:08:39;;;;;;;3.23;2.50;;;;;;;5.09;84.06;96145.13;4990277;28;20224;-84
2022/09/22 04:11:05;;;;;;;3.07;2.53;;;;;;;5.09;84.10;96145.94;4991380;28;20325;-83
2022/09/22 04:13:31;;;;;;;2.93;2.50;;;;;;;5.05;84.27;96141.94;5005503;28;20184;-83
2022/09/22 04:16:01;;;;;;;3.10;2.20;;;;;;;5.06;84.42;96153.88;5002331;28;20219;-84
2022/09/22 04:18:28;;;;;;;2.63;2.43;;;;;;;4.99;84.43;96147.47;5002492;28;20199;-83
2022/09/22 04:20:57;;;;;;;4.17;2.30;;;;;;;4.95;85.18;96146.03;5007899;28;20180;-81
2022/09/22 04:23:23;;;;;;;3.17;2.70;;;;;;;4.98;85.09;96145.81;4978247;28;20215;-80
2022/09/22 04:25:48;;;;;;;4.77;2.77;;;;;;;4.97;85.05;96146.75;4987490;28;20207;-80
2022/09/22 04:28:14;;;;;;;3.23;2.70;;;;;;;4.95;84.86;96146.03;4990670;28;20191;-81
2022/09/22 04:30:39;;;;;;;3.77;2.53;;;;;;;4.92;84.78;96147.94;5002428;28;20192;-81
2022/09/22 04:33:04;;;;;;;3.63;2.67;;;;;;;4.89;85.37;96138.69;4990457;28;20191;-80
2022/09/22 04:35:30;;;;;;;3.37;3.00;;;;;;;4.83;85.16;96142.47;4988643;28;20216;-82
2022/09/22 04:37:56;;;;;;;2.77;2.57;;;;;;;4.84;85.57;96144.13;4991535;28;20208;-81
2022/09/22 04:40:22;;;;;;;2.47;2.27;;;;;;;4.86;85.54;96135.47;4992194;28;20601;-81
2022/09/22 04:42:47;;;;;;;2.77;2.53;;;;;;;4.94;85.20;96141.78;5002706;28;20184;-81
2022/09/22 04:45:13;;;;;;;3.00;2.70;;;;;;;5.04;85.12;96139.47;4990569;28;20215;-82
2022/09/22 04:47:39;;;;;;;4.50;2.33;;;;;;;5.07;85.67;96137.50;4991960;28;20683;-81
2022/09/22 04:50:05;;;;;;;2.73;2.53;;;;;;;5.10;85.34;96142.44;4983645;28;20192;-86
2022/09/22 04:52:30;;;;;;;3.20;2.90;;;;;;;5.09;85.19;96137.41;4991721;28;20188;-86
2022/09/22 04:54:55;;;;;;;4.70;3.20;;;;;;;5.07;85.21;96139.25;4990634;28;20688;-86
2022/09/22 04:57:21;;;;;;;2.90;2.60;;;;;;;5.09;85.18;96140.78;5000915;28;20211;-86
2022/09/22 04:59:46;;;;;;;4.30;2.77;;;;;;;5.15;85.60;96141.31;4987656;28;20195;-80
2022/09/22 05:02:11;;;;;;;3.57;3.10;;;;;;;5.09;85.33;96142.53;4990026;28;20219;-86
2022/09/22 05:04:36;;;;;;;3.50;3.13;;;;;;;5.11;85.58;96145.84;4991453;28;20669;-85
2022/09/22 05:07:02;;;;;;;4.60;3.10;;;;;;;5.09;85.99;96139.97;4984099;28;20215;-85
2022/09/22 05:09:27;;;;;;;4.87;3.27;;;;;;;5.10;85.63;96146.75;4991088;28;20330;-84
2022/09/22 05:11:53;;;;;;;5.73;3.20;;;;;;;5.15;85.83;96151.63;4991365;28;20192;-85
2022/09/22 05:14:18;;;;;;;3.23;2.93;;;;;;;5.22;85.79;96148.56;4990727;28;20651;-85
2022/09/22 05:16:44;;;;;;;4.33;3.17;;;;;;;5.24;85.36;96149.28;4984187;28;20216;-85
2022/09/22 05:19:09;;;;;;;4.37;3.23;;;;;;;5.28;85.54;96142.97;4995268;28;20188;-84
2022/09/22 05:21:35;;;;;;;3.77;3.37;;;;;;;5.35;85.07;96144.22;4989809;28;20199;-85
2022/09/22 05:24:01;;;;;;;3.73;2.80;;;;;;;5.39;84.81;96142.31;4990666;28;20216;-85
2022/09/22 05:26:26;;;;;;;3.37;3.07;;;;;;;5.41;84.72;96143.03;4989067;28;20207;-84
2022/09/22 05:28:52;;;;;;;3.07;2.77;;;;;;;5.50;84.49;96149.31;5000644;28;20664;-85
2022/09/22 05:31:17;;;;;;;5.10;3.10;;;;;;;5.55;84.49;96153.22;4985439;28;20188;-84
2022/09/22 05:33:43;;;;;;;3.30;2.60;;;;;;;5.55;84.56;96152.38;4991725;28;20179;-86
2022/09/22 05:36:08;;;;;;;8.30;3.07;;;;;;;5.63;84.04;96155.28;4986926;28;20216;-84
2022/09/22 05:38:33;;;;;;;4.37;3.27;;;;;;;5.63;84.06;96148.38;4981018;28;20196;-85
2022/09/22 05:40:58;;;;;;;4.53;4.07;;;;;;;5.68;83.97;96155.81;4974444;28;20290;-85
2022/09/22 05:43:24;;;;;;;4.87;3.47;;;;;;;5.80;83.58;96152.41;4988350;28;20222;-84
2022/09/22 05:45:49;;;;;;;5.77;3.60;;;;;;;5.88;83.08;96160.44;4991240;28;20207;-85
2022/09/22 05:48:14;;;;;;;4.80;3.90;;;;;;;5.87;83.11;96158.78;4988116;28;20192;-84
2022/09/22 05:50:40;;;;;;;8.43;3.67;;;;;;;5.94;82.82;96162.66;4976532;28;20196;-83
2022/09/22 05:53:07;;;;;;;4.63;3.10;;;;;;;5.97;82.48;96162.44;4978786;28;20232;-82
2022/09/22 05:55:32;;;;;;;8.00;3.63;;;;;;;5.97;82.87;96159.03;4988968;28;20688;-82
2022/09/22 05:57:59;;;;;;;4.10;3.50;;;;;;;5.99;82.92;96157.16;4990506;28;20204;-83
2022/09/22 06:00:24;;;;;;;6.67;3.70;;;;;;;6.02;82.68;96166.47;4982797;28;20746;-82
2022/09/22 06:02:50;;;;;;;4.87;3.17;;;;;;;6.08;82.44;96166.84;4973772;28;20211;-83
2022/09/22 06:08:02;;;;;;;6.43;3.60;;;;;;;6.27;82.07;96161.25;5537267;23;20223;-81
2022/09/22 06:10:37;;;;;;;3.43;3.13;;;;;;;6.31;81.88;96160.13;4990425;28;20194;-81
2022/09/22 06:13:04;;;;;;;4.17;3.57;;;;;;;6.37;81.82;96159.69;4992728;28;20205;-83
2022/09/22 06:42:58;;;;;;;4.40;3.50;;;;;;;7.36;78.78;96156.88;4626984;23;20242;-83
2022/09/22 06:45:25;;;;;;;3.83;2.90;;;;;;;7.40;78.48;96155.72;4972871;28;20669;-83
2022/09/22 06:47:51;;;;;;;3.90;3.13;;;;;;;7.41;78.56;96162.53;4973458;28;20332;-84
2022/09/22 06:50:16;;;;;;;6.00;3.13;;;;;;;7.53;77.92;96147.91;4985405;28;20262;-83
2022/09/22 06:52:42;;;;;;;4.17;3.10;;;;;;;7.59;78.00;96163.75;4992048;28;20248;-82
2022/09/22 06:55:09;;;;;;;4.57;3.00;;;;;;;7.58;77.85;96162.09;4973458;28;20194;-82
2022/09/22 06:57:35;;;;;;;4.70;2.97;;;;;;;7.64;77.68;96160.84;4974647;28;20282;-81
2022/09/22 07:00:01;;;;;;;4.97;3.70;;;;;;;7.76;77.58;96157.31;4975758;28;20318;-82
2022/09/22 07:02:27;;;;;;;7.00;3.03;;;;;;;7.90;76.97;96161.47;4966538;28;20653;-83
2022/09/22 07:04:57;;;;;;;4.23;3.30;;;;;;;7.94;76.77;96155.09;4981928;28;20203;-83
2022/09/22 07:10:36;;;;;;;4.60;3.40;;;;;;;8.06;76.51;96148.19;5049927;23;20233;-81
2022/09/22 07:13:59;;;;;;;3.80;3.20;;;;;;;8.18;76.06;96148.06;5038865;28;20201;-82
2022/09/22 07:16:36;;;;;;;4.27;3.37;;;;;;;8.23;76.12;96158.88;4948865;28;20339;-83
2022/09/22 07:33:05;;;;;;;3.97;2.73;;;;;;;8.67;74.81;96165.00;4798352;29;20270;-82
2022/09/22 07:41:33;;;;;;;5.40;3.00;;;;;;;8.85;74.04;96154.94;4946362;29;20227;-81
2022/09/22 07:45:11;;;;;;;4.43;2.50;;;;;;;8.86;74.12;96154.00;4943363;29;20681;-80
2022/09/22 07:46:44;;;;;;;6.03;2.80;;;;;;;8.91;74.74;96148.44;4943460;28;20267;-81
2022/09/22 07:49:10;;;;;;;3.50;2.77;;;;;;;9.01;74.45;96151.94;4937701;28;20690;-81
2022/09/22 07:51:37;;;;;;;3.83;2.87;;;;;;;9.11;74.05;96150.25;4926009;28;20192;-81
2022/09/22 07:54:08;;;;;;;3.23;2.40;;;;;;;9.26;73.23;96154.19;4947637;28;20189;-83
2022/09/22 07:56:41;;;;;;;4.20;2.77;;;;;;;9.31;73.20;96148.63;4945644;28;20299;-83
2022/09/22 07:59:09;;;;;;;5.47;2.53;;;;;;;9.43;72.67;96163.19;4947997;28;20194;-83
2022/09/22 08:01:36;;;;;;;3.83;2.43;;;;;;;9.53;72.74;96145.09;4955511;28;20220;-82
2022/09/22 08:04:01;;;;;;;4.87;2.43;;;;;;;9.56;73.19;96145.69;4935535;28;20236;-80
2022/09/22 08:06:27;;;;;;;4.80;2.07;;;;;;;9.67;72.65;96146.56;4934472;28;20213;-81
2022/09/22 08:08:55;;;;;;;3.23;1.97;;;;;;;9.76;71.30;96138.84;4955106;28;20271;-81
2022/09/22 08:11:25;;;;;;;2.20;1.83;;;;;;;9.93;70.41;96146.03;4948810;28;20192;-81
2022/09/22 08:13:55;;;;;;;3.53;1.60;;;;;;;10.02;69.16;96141.03;4951262;28;20195;-80
2022/09/22 08:16:22;;;;;;;2.43;2.00;;;;;;;10.11;70.46;96137.66;4948155;28;20299;-83
2022/09/22 08:18:54;;;;;;;2.13;1.97;;;;;;;10.17;70.20;96140.56;4985610;28;20274;-83
2022/09/22 08:21:20;;;;;;;7.10;6.40;;;;;;;10.28;69.42;96141.44;4994325;28;20206;-83
2022/09/22 08:23:45;;;;;;;2.50;2.30;;;;;;;10.35;68.98;96139.97;5024348;28;20278;-82
2022/09/22 08:26:11;;;;;;;3.10;2.30;;;;;;;10.43;69.56;96135.75;5006918;28;20215;-82
2022/09/22 08:28:36;;;;;;;4.10;3.70;;;;;;;10.51;69.07;96140.25;4989608;28;20273;-82
2022/09/22 08:31:02;;;;;;;8.63;3.63;;;;;;;10.61;67.83;96145.50;5016849;28;20187;-83
2022/09/22 08:33:31;;;;;;;2.70;2.50;;;;;;;10.72;67.98;96140.19;4987312;28;20211;-82
2022/09/22 08:44:09;;;;;;;2.40;1.63;;;;;;;11.04;63.55;96143.38;4519248;23;20243;-81
2022/09/22 08:46:45;;;;;;;3.83;1.60;;;;;;;11.05;62.45;96134.63;5181667;23;20244;-81
2022/09/22 08:52:47;;;;;;;2.13;1.80;;;;;;;11.29;64.03;96148.97;4991584;28;20200;-80
2022/09/22 08:55:21;;;;;;;2.50;1.73;;;;;;;11.28;63.76;96148.16;4983618;28;20670;-86
2022/09/22 08:58:25;;;;;;;2.43;2.10;;;;;;;11.47;63.46;96141.31;4967328;28;20732;-85
2022/09/22 09:01:02;;;;;;;2.47;1.83;;;;;;;11.57;63.47;96147.31;4972565;28;20211;-84
2022/09/22 09:03:54;;;;;;;1.50;1.40;;;;;;;11.69;62.85;96145.41;4955485;28;20220;-82
2022/09/22 09:06:50;;;;;;;4.73;1.60;;;;;;;11.67;61.33;96155.13;4965489;28;20220;-85
2022/09/22 09:09:26;;;;;;;1.33;1.20;;;;;;;11.81;59.53;96157.31;4954985;28;20232;-84
2022/09/22 09:12:07;;;;;;;3.70;1.40;;;;;;;11.83;59.02;96147.56;4968268;28;20203;-85
2022/09/22 09:14:36;;;;;;;1.63;1.47;;;;;;;11.86;58.57;96155.94;4954579;28;20212;-83
2022/09/22 09:17:06;;;;;;;3.97;1.57;;;;;;;11.97;59.48;96146.31;4938685;28;20266;-83
2022/09/22 09:19:43;;;;;;;1.73;1.40;;;;;;;12.07;58.04;96149.72;4939852;28;20200;-83
2022/09/22 09:22:23;;;;;;;2.93;2.40;;;;;;;12.18;58.15;96155.56;4958450;28;20203;-82
2022/09/22 09:24:53;;;;;;;6.47;2.00;;;;;;;12.10;57.37;96152.88;4954426;28;20248;-80
2022/09/22 09:27:22;;;;;;;3.23;1.90;;;;;;;12.09;57.98;96146.00;4971669;28;20232;-84
2022/09/22 09:30:10;;;;;;;2.37;1.83;;;;;;;12.13;57.41;96156.97;4959178;28;20734;-81
2022/09/22 09:32:38;;;;;;;1.70;1.60;;;;;;;12.29;58.57;96148.56;4955000;28;20200;-83
2022/09/22 09:35:04;;;;;;;2.40;1.60;;;;;;;12.28;57.60;96150.34;4972372;28;20188;-82
2022/09/22 09:37:30;;;;;;;5.57;1.77;;;;;;;12.39;57.16;96147.53;4969363;28;20204;-84
2022/09/22 09:39:55;;;;;;;4.57;1.90;;;;;;;12.46;57.51;96147.78;4950412;28;20208;-83
2022/09/22 09:42:28;;;;;;;3.30;1.90;;;;;;;12.55;57.14;96146.94;4977428;28;20224;-84
2022/09/22 09:44:54;;;;;;;2.40;1.60;;;;;;;12.65;57.26;96158.13;4956516;28;20216;-84
2022/09/22 09:47:39;;;;;;;2.03;1.30;;;;;;;12.71;56.23;96151.47;4974245;23;20660;-83
2022/09/22 09:50:05;;;;;;;1.50;1.27;;;;;;;12.73;55.57;96149.56;4978698;28;20204;-81
2022/09/22 09:52:30;;;;;;;2.10;1.43;;;;;;;12.85;56.21;96147.56;4996429;28;20204;-83
2022/09/22 09:54:55;;;;;;;2.83;1.30;;;;;;;12.90;55.51;96154.00;4960060;28;20286;-84
2022/09/22 09:57:22;;;;;;;4.83;2.27;;;;;;;12.95;54.71;96145.72;4965744;28;20232;-83
2022/09/22 10:03:13;;;;;;;1.47;1.37;;;;;;;13.02;53.55;96151.97;4962316;28;20231;-82
2022/09/22 10:05:38;;;;;;;2.90;1.47;;;;;;;13.07;54.17;96151.53;4947477;28;20216;-83
2022/09/22 10:08:18;;;;;;;2.40;1.03;;;;;;;13.14;52.98;96150.78;4980057;28;20224;-83
2022/09/22 10:10:44;;;;;;;1.20;1.10;;;;;;;13.25;54.64;96152.38;4963489;28;20276;-83
2022/09/22 10:13:09;;;;;;;3.27;1.20;;;;;;;13.34;51.51;96148.91;4945532;28;20284;-83
2022/09/22 10:15:37;;;;;;;1.10;1.00;;;;;;;13.39;51.74;96140.63;4957420;28;20208;-82
2022/09/22 10:18:22;;;;;;;2.10;1.27;;;;;;;13.43;51.95;96140.19;4969517;28;20276;-82
2022/09/22 10:21:01;;;;;;;1.57;1.27;;;;;;;13.40;51.76;96139.63;4959920;28;20609;-83
2022/09/22 10:23:26;;;;;;;1.37;1.13;;;;;;;13.48;52.96;96134.50;4964603;28;20705;-83
2022/09/22 10:25:52;;;;;;;1.30;1.20;;;;;;;13.56;51.28;96127.53;4944788;28;20224;-82
2022/09/22 10:28:19;;;;;;;3.97;1.40;;;;;;;13.55;51.96;96130.31;4977505;28;20197;-82
2022/09/22 10:30:59;;;;;;;3.20;1.10;;;;;;;13.66;50.50;96127.44;4938926;28;20227;-82
2022/09/22 10:33:25;;;;;;;1.47;1.13;;;;;;;13.55;50.80;96127.69;4945635;28;20192;-84
2022/09/22 10:36:03;;;;;;;1.67;1.30;;;;;;;13.62;49.57;96126.13;4960292;28;20256;-83
2022/09/22 10:38:32;;;;;;;1.33;1.23;;;;;;;13.57;50.69;96121.34;4965694;28;20559;-85
2022/09/22 10:41:06;;;;;;;1.23;1.13;;;;;;;13.57;49.60;96123.97;4965412;28;20709;-84
2022/09/22 10:43:49;;;;;;;1.53;0.87;;;;;;;13.66;49.68;96124.03;4960980;28;20292;-85
2022/09/22 10:46:31;;;;;;;2.30;1.27;;;;;;;13.62;51.41;96114.88;4967353;28;20920;-84
2022/09/22 10:49:20;;;;;;;1.30;1.17;;;;;;;13.73;50.67;96109.41;4968841;28;20196;-82
2022/09/22 10:51:55;;;;;;;0.87;0.87;;;;;;;13.73;49.86;96110.22;4957364;28;20208;-85
2022/09/22 10:54:41;;;;;;;3.33;1.03;;;;;;;14.00;50.71;96113.63;4965614;28;20267;-85
2022/09/22 10:57:44;;;;;;;2.20;1.07;;;;;;;14.00;50.66;96119.69;4960628;28;20295;-84
2022/09/22 11:00:10;;;;;;;1.40;1.10;;;;;;;14.16;49.90;96111.13;4942750;28;20208;-83
2022/09/22 11:02:54;;;;;;;1.67;1.00;;;;;;;14.15;49.43;96112.09;4963983;28;20204;-81
2022/09/22 11:14:11;;;;;;;1.03;1.00;;;;;;;14.14;47.66;96110.47;4961799;28;20637;-84
2022/09/22 11:16:40;;;;;;;1.77;1.10;;;;;;;14.23;48.01;96112.13;4959693;28;20208;-83
2022/09/22 11:19:23;;;;;;;2.43;1.20;;;;;;;14.15;47.66;96109.47;4974820;28;20204;-83
2022/09/22 11:22:16;;;;;;;0.90;0.90;;;;;;;14.11;46.88;96108.13;4968472;28;20263;-83
2022/09/22 11:24:49;;;;;;;1.50;1.13;;;;;;;14.39;47.36;96098.31;4950423;28;20749;-83
2022/09/22 11:28:15;;;;;;;;;;;;;;;;;;;;;
2022/09/22 11:54:46;;;;;;;2.73;1.67;;;;;;;14.89;45.90;96087.88;5021793;28;20210;-82
2022/09/22 11:57:14;;;;;;;1.25;1.15;;;;;;;14.99;45.05;96088.53;5008635;28;20242;-82
2022/09/22 11:59:58;;;;;;;1.90;1.20;;;;;;;14.94;44.85;96082.16;5002791;28;20187;-84
2022/09/22 12:02:40;;;;;;;2.08;1.10;;;;;;;14.99;44.02;96085.91;4971020;28;20374;-85
2022/09/22 12:41:03;;;;;;;1.20;1.10;;;;;;;15.91;41.73;96059.56;4890636;29;20214;-85
2022/09/22 12:43:47;;;;;;;1.25;1.10;;;;;;;15.74;42.93;96056.16;4841168;29;20219;-82
2022/09/22 12:46:27;;;;;;;1.33;1.00;;;;;;;15.88;43.99;96055.47;4828721;29;20231;-81
2022/09/22 12:48:53;;;;;;;2.70;0.90;;;;;;;15.72;42.85;96056.31;4833837;29;20192;-82
2022/09/22 12:51:24;;;;;;;2.28;0.90;;;;;;;15.40;43.09;96048.50;4823201;29;20261;-82
2022/09/22 12:53:50;;;;;;;1.33;0.98;;;;;;;15.52;43.66;96047.97;4823668;29;20201;-81
2022/09/22 12:56:43;;;;;;;2.80;1.05;;;;;;;15.64;43.81;96051.13;4803274;29;20743;-81
2022/09/22 12:59:36;;;;;;;1.48;1.10;;;;;;;15.72;43.39;96045.00;4821461;29;20255;-80
2022/09/22 13:02:12;;;;;;;1.52;1.27;;;;;;;15.73;43.65;96047.50;4818211;29;20220;-80
2022/09/22 13:04:38;;;;;;;1.92;1.00;;;;;;;15.83;44.56;96045.50;4821630;29;20233;-81
2022/09/22 13:07:34;;;;;;;1.58;1.08;;;;;;;15.91;42.67;96041.22;4823403;29;20236;-80
2022/09/22 13:10:21;;;;;;;1.13;0.90;;;;;;;15.90;42.95;96043.00;4825181;29;20224;-83
2022/09/22 13:15:53;;;;;;;2.20;1.05;;;;;;;15.62;42.23;96049.63;4833393;29;20190;-82
2022/09/22 13:18:34;;;;;;;3.40;1.10;;;;;;;15.88;42.09;96036.31;4837490;29;20193;-79
2022/09/22 13:21:11;;;;;;;1.67;1.10;;;;;;;15.81;41.60;96041.38;4868636;29;20709;-83
2022/09/22 13:23:49;;;;;;;1.00;0.90;;;;;;;16.01;41.01;96034.81;4922280;29;20216;-85
2022/09/22 13:26:15;;;;;;;1.10;1.00;;;;;;;16.03;42.02;96032.81;4964006;28;20615;-81
2022/09/22 13:28:41;;;;;;;1.30;1.20;;;;;;;16.04;41.80;96026.59;4948194;29;20193;-81
2022/09/22 13:31:15;;;;;;;1.13;1.02;;;;;;;16.14;42.09;96035.06;4953459;29;20651;-84
2022/09/22 13:33:40;;;;;;;2.03;1.10;;;;;;;16.26;41.66;96029.47;4942648;29;20237;-82
2022/09/22 13:36:07;;;;;;;1.85;1.08;;;;;;;15.93;40.19;96026.97;4951466;28;20232;-81
2022/09/22 13:38:39;;;;;;;1.30;1.13;;;;;;;15.88;40.18;96025.84;4954325;28;20262;-82
2022/09/22 13:41:26;;;;;;;2.38;1.00;;;;;;;16.09;41.41;96023.47;4959697;28;20184;-83
2022/09/22 13:43:59;;;;;;;4.53;1.00;;;;;;;16.13;41.37;96028.19;4988983;28;20222;-81
2022/09/22 13:46:41;;;;;;;1.73;1.00;;;;;;;16.03;40.73;96029.38;4949053;28;20304;-82
2022/09/22 13:49:13;;;;;;;1.23;1.10;;;;;;;16.02;40.86;96019.91;4968352;28;20585;-82
2022/09/22 13:51:38;;;;;;;2.15;1.17;;;;;;;16.28;40.92;96015.19;4956407;28;20600;-81
2022/09/22 13:54:05;;;;;;;0.98;0.98;;;;;;;16.38;40.53;96018.41;4950881;28;20210;-80
2022/09/22 13:56:31;;;;;;;0.80;0.80;;;;;;;16.26;40.32;96019.81;4969521;28;20212;-80
2022/09/22 13:58:58;;;;;;;1.50;1.10;;;;;;;16.20;39.99;96011.81;4953297;28;20515;-82
2022/09/22 14:01:26;;;;;;;2.58;1.00;;;;;;;16.38;41.04;96015.00;4973870;28;20231;-82
2022/09/22 14:03:52;;;;;;;1.10;1.00;;;;;;;16.26;40.86;96011.13;4951019;28;20239;-82
2022/09/22 14:06:20;;;;;;;0.80;0.80;;;;;;;16.50;38.95;96005.72;4934881;28;20212;-83
2022/09/22 14:08:47;;;;;;;1.35;0.95;;;;;;;16.52;39.34;96010.78;4977973;28;20606;-82
2022/09/22 14:11:18;;;;;;;1.42;1.30;;;;;;;16.43;39.01;96004.78;4952374;28;20885;-79
2022/09/22 14:13:53;;;;;;;1.42;1.00;;;;;;;16.39;39.56;96011.38;4952275;28;20223;-82
2022/09/22 14:16:41;;;;;;;2.60;1.20;;;;;;;16.47;38.26;96005.28;4965998;28;20230;-81
2022/09/22 14:19:13;;;;;;;2.88;1.00;;;;;;;16.46;38.46;96001.84;4950703;28;20180;-80